Latest Coastal Weather Observations for Cape Ferguson

IDQ60701

Issued at 6:21 am EST Wednesday 4 March 2015 (issued every 10 minutes, with the page automatically refreshed every 10 minutes)

About coastal observations | Map of coastal stations | Coastal observations for QLD | Marine services | Other Formats
Station Details ID: 032182 Name: CAPE FERGUSON NTC AWS Lat: -19.28 Lon: 147.06 Height: 0.0 m
Data from the previous 72 hours. | See also: Recent months for locations in Queensland
Date/Time
EST
Temp

°C
Wind Pressure Rain
since 9am
mm
Weather Cloud Vis
km
Sea
Height
m
Swell
Dir
 
Speed
knots
Gust
knots
hPa Trend Height
m
Period
s
Dir
04/06:00am 26.4 SSE 12 15 1010.0 - - - - - - - - -
04/05:30am 26.4 SSE 13 16 1009.7 - - - - - - - - -
04/05:00am 26.2 S 12 15 1009.3 - - - - - - - - -
04/04:30am 26.5 SSE 13 15 1009.1 - - - - - - - - -
04/04:00am 26.6 SSE 12 14 1009.2 - - - - - - - - -
04/03:30am 26.6 SSE 13 17 1009.3 - - - - - - - - -
04/03:00am 26.6 SSE 12 15 1009.4 - - - - - - - - -
04/02:30am 26.7 SSE 11 15 1009.7 - - - - - - - - -
04/02:00am 26.6 S 8 11 1010.1 - - - - - - - - -
04/01:30am 26.2 SW 7 9 1010.5 - - - - - - - - -
04/01:00am 25.9 WSW 6 8 1010.9 - - - - - - - - -
04/12:30am 26.4 SW 8 15 1011.2 - - - - - - - - -
04/12:00am 27.9 SSE 12 16 1011.6 - - - - - - - - -
 
Date/Time
EST
Temp

°C
Wind Pressure Rain
since 9am
mm
Weather Cloud Vis
km
Sea
Height
m
Swell
Dir
 
Speed
knots
Gust
knots
hPa Trend Height
m
Period
s
Dir
03/11:30pm 28.7 SE 17 21 1011.9 - - - - - - - - -
03/11:00pm 28.8 ESE 15 23 1011.9 - - - - - - - - -
03/10:30pm 29.0 ESE 18 23 1012.0 - - - - - - - - -
03/10:00pm 29.2 ESE 17 23 1011.8 - - - - - - - - -
03/09:30pm 29.4 ESE 16 20 1011.6 - - - - - - - - -
03/09:00pm 29.0 ESE 15 19 1011.2 - - - - - - - - -
03/08:30pm 29.0 ESE 14 17 1011.0 - - - - - - - - -
03/08:00pm 29.0 E 14 18 1010.7 - - - - - - - - -
03/07:30pm 28.9 E 14 17 1010.4 - - - - - - - - -
03/07:00pm 28.9 E 14 18 1010.0 - - - - - - - - -
03/06:30pm 28.9 E 15 18 1009.5 - - - - - - - - -
03/06:00pm 28.9 E 16 20 1009.2 - - - - - - - - -
03/05:30pm 28.8 E 17 21 1009.0 - - - - - - - - -
03/05:00pm 29.1 E 17 21 1008.9 - - - - - - - - -
03/04:30pm 29.2 E 15 19 1008.8 - - - - - - - - -
03/04:00pm 29.1 E 16 18 1008.7 - - - - - - - - -
03/03:30pm 29.3 E 14 17 1008.6 - - - - - - - - -
03/03:00pm 29.4 E 16 18 1008.9 - - - - - - - - -
03/02:30pm 29.1 E 16 19 1009.3 - - - - - - - - -
03/02:00pm 28.9 E 15 18 1009.7 - - - - - - - - -
03/01:30pm 28.9 E 15 18 1010.0 - - - - - - - - -
03/01:00pm 29.1 E 16 19 1010.6 - - - - - - - - -
03/12:30pm 29.1 ESE 18 22 1011.0 - - - - - - - - -
03/12:00pm 28.8 E 19 22 1011.5 - - - - - - - - -
03/11:30am 29.2 ESE 14 18 1011.4 - - - - - - - - -
03/11:00am 28.9 ESE 12 17 1011.8 - - - - - - - - -
03/10:30am 28.8 SE 13 17 1011.8 - - - - - - - - -
03/10:00am 28.5 SE 13 16 1011.9 - - - - - - - - -
03/09:30am 28.0 SE 9 12 1011.7 - - - - - - - - -
03/09:00am 27.5 SSE 11 13 1011.7 - - - - - - - - -
03/08:30am 27.3 SSE 11 14 1011.5 - - - - - - - - -
03/08:00am 27.1 SSE 12 14 1011.2 - - - - - - - - -
03/07:30am 27.0 SSE 12 14 1011.0 - - - - - - - - -
03/07:00am 27.0 SSE 10 13 1010.3 - - - - - - - - -
03/06:30am 26.9 S 11 13 1010.0 - - - - - - - - -
03/06:00am 26.7 SSE 11 13 1009.8 - - - - - - - - -
03/05:30am 27.1 SSE 10 12 1009.6 - - - - - - - - -
03/05:00am 27.3 SE 9 12 1009.3 - - - - - - - - -
03/04:30am 27.3 SE 9 13 1009.3 - - - - - - - - -
03/04:00am 27.4 SSE 11 13 1009.1 - - - - - - - - -
03/03:30am 28.0 SE 10 12 1008.9 - - - - - - - - -
03/03:00am 28.6 ESE 11 14 1009.0 - - - - - - - - -
03/02:30am 28.6 E 12 14 1009.3 - - - - - - - - -
03/02:00am 28.7 E 11 14 1009.4 - - - - - - - - -
03/01:30am 28.7 E 12 15 1009.8 - - - - - - - - -
03/01:00am 28.8 E 14 16 1010.3 - - - - - - - - -
03/12:30am 28.6 E 12 15 1010.4 - - - - - - - - -
03/12:00am 28.6 E 13 16 1010.7 - - - - - - - - -
 
Date/Time
EST
Temp

°C
Wind Pressure Rain
since 9am
mm
Weather Cloud Vis
km
Sea
Height
m
Swell
Dir
 
Speed
knots
Gust
knots
hPa Trend Height
m
Period
s
Dir
02/11:30pm 28.8 E 13 15 1010.8 - - - - - - - - -
02/11:00pm 28.6 E 11 15 1010.8 - - - - - - - - -
02/10:30pm 28.6 E 11 14 1010.5 - - - - - - - - -
02/10:00pm 28.5 E 10 14 1010.4 - - - - - - - - -
02/09:30pm 28.6 E 11 14 1010.3 - - - - - - - - -
02/09:00pm 28.6 E 11 14 1010.2 - - - - - - - - -
02/08:30pm 28.7 E 11 16 1009.5 - - - - - - - - -
02/08:00pm 28.6 E 12 14 1009.1 - - - - - - - - -
02/07:30pm 28.6 E 11 15 1008.8 - - - - - - - - -
02/07:00pm 28.7 ENE 11 14 1008.5 - - - - - - - - -
02/06:30pm 28.7 ENE 10 12 1008.1 - - - - - - - - -
02/06:00pm 28.6 ENE 11 14 1007.9 - - - - - - - - -
02/05:30pm 28.9 ENE 12 14 1007.2 - - - - - - - - -
02/05:00pm 28.8 ENE 12 15 1007.1 - - - - - - - - -
02/04:30pm 29.2 ENE 8 13 1006.7 - - - - - - - - -
02/04:00pm 29.3 ENE 7 13 1006.6 - - - - - - - - -
02/03:30pm 29.6 ENE 7 12 1006.7 - - - - - - - - -
02/03:00pm 29.7 ENE 7 11 1006.9 - - - - - - - - -
02/02:30pm 29.8 NE 7 12 1006.9 - - - - - - - - -
02/02:00pm 29.8 ENE 6 12 1007.0 - - - - - - - - -
02/01:30pm 29.8 ENE 6 11 1007.3 - - - - - - - - -
02/01:00pm 29.9 ENE 4 9 1007.6 - - - - - - - - -
02/12:30pm 29.8 ENE 5 8 1008.1 - - - - - - - - -
02/12:00pm 29.4 ENE 5 8 1008.5 - - - - - - - - -
02/11:30am 29.4 ENE 4 8 1008.8 - - - - - - - - -
02/11:00am 29.1 ENE 5 8 1009.1 - - - - - - - - -
02/10:30am 28.9 ENE 5 7 1009.2 - - - - - - - - -
02/10:00am 28.8 ENE 5 7 1009.2 - - - - - - - - -
02/09:30am 28.9 ENE 4 5 1009.2 - - - - - - - - -
02/09:00am 29.1 ENE 3 5 1009.2 - - - - - - - - -
02/08:30am 28.9 S 2 4 1008.9 - - - - - - - - -
02/08:00am 28.6 SW 2 4 1008.8 - - - - - - - - -
02/07:30am 28.4 SW 2 5 1008.5 - - - - - - - - -
02/07:00am 28.4 NW 2 4 1008.2 - - - - - - - - -
02/06:30am 27.5 WNW 3 4 1008.2 - - - - - - - - -
02/06:00am 26.8 NW 3 5 1007.8 - - - - - - - - -
02/05:30am 27.7 NW 3 5 1007.6 - - - - - - - - -
02/05:00am 27.7 NW 3 5 1007.2 - - - - - - - - -
02/04:30am 27.6 NW 2 4 1007.2 - - - - - - - - -
02/04:00am 27.5 NW 3 5 1007.1 - - - - - - - - -
02/03:30am 27.7 NW 3 4 1007.1 - - - - - - - - -
02/03:00am 27.8 WNW 3 5 1007.1 - - - - - - - - -
02/02:30am 27.9 NW 4 7 1007.3 - - - - - - - - -
02/02:00am 28.0 NW 3 6 1007.7 - - - - - - - - -
02/01:30am 27.6 WNW 5 8 1008.2 - - - - - - - - -
02/01:00am 28.1 W 3 7 1008.4 - - - - - - - - -
02/12:30am 28.2 NW 4 8 1008.6 - - - - - - - - -
02/12:00am 28.1 NW 3 6 1009.0 - - - - - - - - -
 
Date/Time
EST
Temp

°C
Wind Pressure Rain
since 9am
mm
Weather Cloud Vis
km
Sea
Height
m
Swell
Dir
 
Speed
knots
Gust
knots
hPa Trend Height
m
Period
s
Dir
01/11:30pm 28.3 WNW 4 7 1009.4 - - - - - - - - -
01/11:00pm 28.4 WNW 4 8 1009.2 - - - - - - - - -
01/10:30pm 28.4 W 2 6 1009.0 - - - - - - - - -
01/10:00pm 28.5 ESE 2 5 1008.9 - - - - - - - - -
01/09:30pm 28.2 WNW 3 7 1008.6 - - - - - - - - -
01/09:00pm 28.3 WNW 3 7 1008.3 - - - - - - - - -
01/08:30pm 28.4 WNW 3 7 1008.3 - - - - - - - - -
01/08:00pm 28.5 WNW 4 10 1008.1 - - - - - - - - -
01/07:30pm 28.7 SE 2 9 1007.7 - - - - - - - - -
01/07:00pm 28.6 WSW 2 7 1007.3 - - - - - - - - -
01/06:30pm 28.8 ENE 3 9 1007.1 - - - - - - - - -
01/06:00pm 28.9 ENE 4 10 1006.9 - - - - - - - - -
01/05:30pm 29.0 ENE 4 10 1006.5 - - - - - - - - -
01/05:00pm 28.9 ENE 5 11 1006.8 - - - - - - - - -
01/04:30pm 29.0 ENE 6 11 1006.4 - - - - - - - - -
01/04:00pm 29.0 ENE 5 11 1006.2 - - - - - - - - -
01/03:30pm 28.9 ENE 6 11 1006.4 - - - - - - - - -
01/03:00pm 29.4 ENE 6 14 1006.5 - - - - - - - - -
01/02:30pm 29.1 NE 7 12 1006.9 - - - - - - - - -
01/02:00pm 29.2 NE 5 12 1007.0 - - - - - - - - -
01/01:30pm 29.3 NE 5 11 1007.4 - - - - - - - - -
01/01:00pm 29.3 NE 5 10 1007.7 - - - - - - - - -
01/12:30pm 29.1 NE 4 9 1008.1 - - - - - - - - -
01/12:00pm 29.2 NE 5 11 1008.5 - - - - - - - - -
01/11:30am 29.5 NE 4 8 1008.6 - - - - - - - - -
01/11:00am 29.1 ENE 6 10 1008.9 - - - - - - - - -
01/10:30am 28.6 NE 5 9 1009.0 - - - - - - - - -
01/10:00am 28.7 NE 5 8 1009.2 - - - - - - - - -
01/09:30am 28.5 NE 5 9 1009.2 - - - - - - - - -
01/09:00am 28.9 NE 4 8 1009.1 - - - - - - - - -
01/08:30am 28.9 ENE 3 8 1009.0 - - - - - - - - -
01/08:00am 28.7 NE 3 7 1008.5 - - - - - - - - -
01/07:30am 28.4 NE 3 7 1007.8 - - - - - - - - -
01/07:00am 28.4 ENE 2 7 1007.5 - - - - - - - - -
01/06:30am 26.4 NW 2 4 1007.4 - - - - - - - - -

Other Formats:

Comma delimited format used in spreadsheet applications
http://www.bom.gov.au/fwo/IDQ60701/IDQ60701.94297.axf

JavaScript Object Notation format (JSON) in row-major order
http://www.bom.gov.au/fwo/IDQ60701/IDQ60701.94297.json